Latest Weather Observations for Canterbury

IDN60801

Issued at 9:32 am EST Wednesday 1 June 2016 (issued every 30 minutes, with the page automatically refreshed every 10 minutes)

About weather observations | Map of weather stations | Latest weather observations for NSW | Other Formats
Station Details ID: 066194 Name: CANTERBURY RACECOURSE AWS Lat: -33.91 Lon: 151.11 Height: 3.0 m
Data from the previous 72 hours. | See also: Recent months at Canterbury
Date/Time
EST
Temp
°C
App
Temp
°C
Dew
Point
Rel
Hum
%
Delta-T
°C
Wind Press
QNH
hPa
Press
MSL
hPa
Rain
since 9 am
mm
Dir
 
Spd
km/h
Gust
km/h
Spd
kts
Gust
kts
01/09:00am 13.7 13.8 12.8 94 0.5 NW 4 9 2 5 - - 9.2
01/08:30am 12.9 13.0 12.7 99 0.1 NNW 4 7 2 4 - - 9.2
01/08:00am 12.4 12.7 12.2 99 0.1 NW 2 9 1 5 - - 9.2
01/07:30am 11.3 11.7 11.1 99 0.1 CALM 0 7 0 4 - - 9.2
01/07:00am 10.6 10.8 10.4 99 0.1 CALM 0 6 0 3 - - 9.2
01/06:34am 11.2 10.4 11.0 99 0.1 NW 6 11 3 6 - - 9.2
01/06:30am 11.3 10.9 11.1 99 0.1 NW 4 11 2 6 - - 9.2
01/06:21am 10.8 11.0 10.6 99 0.1 CALM 0 0 0 0 - - 9.2
01/06:00am 11.3 10.9 11.1 99 0.1 NW 4 9 2 5 - - 9.2
01/05:40am 11.4 10.5 11.2 99 0.1 NW 7 11 4 6 - - 9.2
01/05:30am 11.3 11.7 11.1 99 0.1 CALM 0 0 0 0 - - 9.2
01/05:10am 11.1 11.4 10.9 99 0.1 CALM 0 0 0 0 - - 9.2
01/05:05am 11.2 11.5 11.0 99 0.1 CALM 0 0 0 0 - - 9.2
01/05:00am 11.4 11.8 11.2 99 0.1 CALM 0 0 0 0 - - 9.2
01/04:51am 11.3 11.7 11.1 99 0.1 CALM 0 0 0 0 - - 9.2
01/04:30am 11.3 10.5 11.1 99 0.1 NNW 6 7 3 4 - - 9.2
01/04:00am 11.5 10.8 11.3 99 0.1 NW 6 7 3 4 - - 9.2
01/03:30am 11.8 11.9 11.6 99 0.1 NW 2 7 1 4 - - 9.2
01/03:00am 11.9 11.3 11.7 99 0.1 NW 6 9 3 5 - - 9.2
01/02:30am 11.8 11.2 11.6 99 0.1 N 6 9 3 5 - - 9.2
01/02:00am 11.8 12.3 11.6 99 0.1 CALM 0 0 0 0 - - 9.2
01/01:30am 11.8 11.2 11.6 99 0.1 NW 6 7 3 4 - - 9.2
01/01:00am 11.6 11.3 11.4 99 0.1 NW 4 11 2 6 - - 9.2
01/12:30am 12.1 11.0 11.9 99 0.1 W 9 15 5 8 - - 9.2
01/12:00am 12.4 11.9 12.1 98 0.2 WNW 6 9 3 5 - - 9.2
 
Date/Time
EST
Temp
°C
App
Temp
°C
Dew
Point
Rel
Hum
%
Delta-T
°C
Wind Press
QNH
hPa
Press
MSL
hPa
Rain
since 9 am
mm
Dir
 
Spd
km/h
Gust
km/h
Spd
kts
Gust
kts
31/11:30pm 13.0 13.5 12.8 99 0.1 WNW 2 7 1 4 - - 9.2
31/11:00pm 13.1 12.7 12.9 99 0.1 NW 7 11 4 6 - - 9.2
31/10:30pm 13.2 13.0 13.0 99 0.1 NW 6 9 3 5 - - 9.2
31/10:00pm 13.3 13.5 13.1 99 0.1 NW 4 7 2 4 - - 9.2
31/09:30pm 13.3 13.9 13.0 98 0.2 W 2 7 1 4 - - 9.0
31/09:01pm 13.4 13.3 13.2 99 0.1 NW 6 13 3 7 - - 9.0
31/09:00pm 13.4 13.3 13.2 99 0.1 NW 6 15 3 8 - - 9.0
31/08:46pm 13.4 12.7 13.2 99 0.1 NW 9 13 5 7 - - 9.0
31/08:30pm 13.5 13.4 13.3 99 0.1 NNW 6 11 3 6 - - 8.8
31/08:00pm 13.4 13.6 13.1 98 0.2 S 4 9 2 5 - - 8.6
31/07:42pm 13.4 13.9 12.8 96 0.3 NE 2 6 1 3 - - 8.6
31/07:30pm 13.4 14.2 12.6 95 0.4 CALM 0 4 0 2 - - 8.6
31/07:00pm 13.6 13.6 12.3 92 0.7 E 4 9 2 5 - - 7.4
31/06:30pm 14.1 13.3 12.8 92 0.7 E 9 13 5 7 - - 6.2
31/06:12pm 14.2 14.8 13.1 93 0.6 SE 2 7 1 4 - - 4.8
31/06:00pm 14.2 13.8 13.1 93 0.6 SE 7 9 4 5 - - 4.6
31/05:56pm 14.2 13.5 13.1 93 0.6 SE 9 13 5 7 - - 4.6
31/05:38pm 14.3 12.3 12.7 90 0.9 SSE 15 20 8 11 - - 4.4
31/05:30pm 14.6 12.6 12.8 89 1.0 SSE 15 26 8 14 - - 4.2
31/05:00pm 14.6 14.2 13.0 90 0.9 SSE 7 13 4 7 - - 4.2
31/04:30pm 14.9 14.1 12.9 88 1.1 SE 9 13 5 7 - - 4.2
31/04:00pm 15.2 15.0 13.7 91 0.8 SE 7 11 4 6 - - 4.2
31/03:30pm 15.1 15.3 14.3 95 0.5 SE 6 9 3 5 - - 4.2
31/03:00pm 14.9 15.0 14.4 97 0.3 SSE 7 9 4 5 - - 4.2
31/02:58pm 14.8 14.8 14.2 96 0.3 SSE 7 9 4 5 - - 4.2
31/02:40pm 14.6 14.7 14.0 96 0.3 SE 6 9 3 5 - - 4.0
31/02:30pm 14.4 14.2 13.6 95 0.4 SE 7 11 4 6 - - 3.6
31/02:28pm 14.4 14.2 13.6 95 0.4 SE 7 11 4 6 - - 3.6
31/02:00pm 14.3 13.6 13.2 93 0.6 ESE 9 15 5 8 - - 2.6
31/01:30pm 14.3 12.7 12.7 90 0.9 ESE 13 17 7 9 - - 1.0
31/01:16pm 14.7 13.6 13.2 91 0.8 SE 11 17 6 9 - - 0.2
31/01:00pm 14.9 13.3 12.9 88 1.1 SSE 13 20 7 11 - - 0.0
31/12:30pm 15.5 12.3 11.3 76 2.3 SSE 19 32 10 17 - - 0.0
31/12:00pm 16.7 14.0 11.6 72 2.8 SSE 17 30 9 16 - - 0.0
31/11:30am 16.4 14.6 12.0 75 2.4 S 13 20 7 11 - - 0.0
31/11:00am 16.1 15.2 11.5 74 2.5 W 7 11 4 6 - - 0.0
31/10:30am 14.1 12.8 10.1 77 2.1 W 7 9 4 5 - - 0.0
31/10:00am 12.9 11.5 9.7 81 1.6 W 7 11 4 6 - - 0.0
31/09:30am 12.0 10.6 9.7 86 1.2 WNW 7 13 4 7 - - 0.0
31/09:00am 10.5 9.0 9.3 92 0.6 NNW 7 9 4 5 - - 0.8
31/08:30am 9.5 7.9 8.1 91 0.7 NW 6 11 3 6 - - 0.8
31/08:14am 9.2 7.5 7.5 89 0.8 WNW 6 9 3 5 - - 0.8
31/08:00am 9.1 7.1 7.2 88 0.9 NW 7 13 4 7 - - 0.6
31/07:46am 9.1 7.2 7.4 89 0.8 NNW 7 11 4 6 - - 0.4
31/07:30am 9.1 7.2 7.7 91 0.7 NNW 7 11 4 6 - - 0.2
31/07:00am 8.4 7.6 6.7 89 0.8 CALM 0 0 0 0 - - 0.2
31/06:30am 8.4 6.3 6.5 88 0.9 NNW 7 9 4 5 - - 0.2
31/06:18am 8.5 6.6 6.5 87 0.9 WNW 6 9 3 5 - - 0.2
31/06:01am 8.5 6.5 6.1 85 1.1 NW 6 9 3 5 - - 0.0
31/06:00am 8.5 6.5 6.1 85 1.1 NW 6 9 3 5 - - 0.0
31/05:30am 8.1 5.9 5.4 83 1.2 NNW 6 9 3 5 - - 0.0
31/05:00am 7.7 5.4 5.5 86 1.0 WNW 7 9 4 5 - - 0.0
31/04:30am 7.0 4.7 4.7 85 1.0 NW 6 9 3 5 - - 0.0
31/04:00am 7.0 5.0 4.3 83 1.2 NNW 4 7 2 4 - - 0.0
31/03:30am 6.8 5.4 3.6 80 1.4 CALM 0 0 0 0 - - 0.0
31/03:00am 7.2 4.7 4.0 80 1.4 NW 6 7 3 4 - - 0.0
31/02:30am 7.8 5.3 4.9 82 1.3 NW 7 9 4 5 - - 0.0
31/02:00am 6.8 4.6 5.1 89 0.7 NW 6 9 3 5 - - 0.0
31/01:30am 6.3 5.3 5.4 94 0.4 CALM 0 7 0 4 - - 0.0
31/01:00am 6.0 4.9 5.3 95 0.3 CALM 0 0 0 0 - - 0.0
31/12:30am 5.9 3.7 5.3 96 0.3 NNW 6 9 3 5 - - 0.0
31/12:00am 5.8 4.8 5.5 98 0.1 CALM 0 0 0 0 - - 0.0
 
Date/Time
EST
Temp
°C
App
Temp
°C
Dew
Point
Rel
Hum
%
Delta-T
°C
Wind Press
QNH
hPa
Press
MSL
hPa
Rain
since 9 am
mm
Dir
 
Spd
km/h
Gust
km/h
Spd
kts
Gust
kts
30/11:30pm 5.8 4.8 5.5 98 0.1 CALM 0 0 0 0 - - 0.0
30/11:12pm 5.6 4.5 5.2 97 0.2 CALM 0 0 0 0 - - 0.0
30/11:00pm 5.7 4.6 5.1 96 0.3 CALM 0 0 0 0 - - 0.0
30/10:53pm 5.1 3.8 4.2 94 0.4 CALM 0 0 0 0 - - 0.0
30/10:30pm 5.8 4.7 5.2 96 0.3 CALM 0 0 0 0 - - 0.0
30/10:00pm 6.0 4.9 5.1 94 0.4 CALM 0 0 0 0 - - 0.0
30/09:30pm 6.3 5.2 5.3 93 0.4 CALM 0 0 0 0 - - 0.0
30/09:00pm 6.3 5.1 4.8 90 0.7 CALM 0 0 0 0 - - 0.0
30/08:30pm 6.9 5.9 5.5 91 0.6 CALM 0 0 0 0 - - 0.0
30/08:00pm 6.9 5.7 4.6 85 1.0 CALM 0 0 0 0 - - 0.0
30/07:30pm 7.3 6.2 5.0 85 1.0 CALM 0 0 0 0 - - 0.0
30/07:00pm 8.1 7.0 4.9 80 1.4 CALM 0 0 0 0 - - 0.0
30/06:30pm 8.4 7.1 4.0 74 1.9 CALM 0 0 0 0 - - 0.0
30/06:00pm 10.0 8.8 4.4 68 2.5 CALM 0 0 0 0 - - 0.0
30/05:30pm 11.7 10.4 4.2 60 3.4 CALM 0 0 0 0 - - 0.0
30/05:00pm 13.9 11.4 3.7 50 4.6 SSE 6 11 3 6 - - 0.0
30/04:30pm 15.5 12.5 3.9 46 5.3 SE 9 15 5 8 - - 0.0
30/04:00pm 16.6 13.1 3.7 42 6.0 SE 11 15 6 8 - - 0.0
30/03:30pm 17.3 13.6 2.1 36 6.8 SSE 11 15 6 8 - - 0.0
30/03:00pm 17.5 13.3 1.9 35 7.0 SE 13 19 7 10 - - 0.0
30/02:30pm 18.5 15.6 2.4 34 7.4 SW 7 13 4 7 - - 0.0
30/02:00pm 17.7 14.3 2.1 35 7.0 ESE 9 13 5 7 - - 0.0
30/01:30pm 17.8 14.5 2.2 35 7.1 SW 9 20 5 11 - - 0.0
30/01:00pm 18.3 15.6 3.8 38 6.8 W 7 13 4 7 - - 0.0
30/12:30pm 17.0 13.8 3.3 40 6.3 W 9 15 5 8 - - 0.0
30/12:00pm 16.7 13.8 2.7 39 6.4 W 7 13 4 7 - - 0.0
30/11:30am 15.6 12.4 3.1 43 5.7 WNW 9 19 5 10 - - 0.0
30/11:00am 15.5 12.1 3.9 46 5.3 WNW 11 17 6 9 - - 0.0
30/10:30am 13.7 10.1 3.2 49 4.7 WNW 11 17 6 9 - - 0.0
30/10:00am 12.7 9.1 3.1 52 4.2 W 11 19 6 10 - - 0.0
30/09:30am 11.6 7.9 2.6 54 3.9 WNW 11 17 6 9 - - 0.0
30/09:00am 10.0 5.9 2.1 58 3.3 W 13 24 7 13 - - 0.2
30/08:30am 9.3 5.2 2.2 61 3.0 W 13 19 7 10 - - 0.2
30/08:00am 8.4 5.0 1.8 63 2.7 W 9 15 5 8 - - 0.2
30/07:30am 7.5 4.5 2.0 68 2.3 WNW 7 13 4 7 - - 0.2
30/07:00am 6.6 3.7 1.3 69 2.1 WNW 6 11 3 6 - - 0.2
30/06:30am 6.4 3.3 1.1 69 2.1 WNW 7 13 4 7 - - 0.2
30/06:00am 6.8 3.9 1.3 68 2.2 WNW 6 17 3 9 - - 0.2
30/05:30am 7.0 4.1 1.3 67 2.3 NW 6 13 3 7 - - 0.2
30/05:00am 7.3 3.4 1.4 66 2.4 W 11 17 6 9 - - 0.2
30/04:30am 7.3 3.8 1.2 65 2.4 NW 9 15 5 8 - - 0.2
30/04:00am 7.5 4.0 1.1 64 2.6 W 9 22 5 12 - - 0.2
30/03:30am 7.8 4.3 1.0 62 2.7 W 9 15 5 8 - - 0.2
30/03:00am 8.1 4.2 1.0 61 2.9 W 11 22 6 12 - - 0.2
30/02:30am 8.4 4.1 1.1 60 3.0 W 13 22 7 12 - - 0.2
30/02:00am 8.5 4.3 1.4 61 2.9 W 13 20 7 11 - - 0.2
30/01:30am 7.7 4.2 1.3 64 2.6 WNW 9 20 5 11 - - 0.2
30/01:00am 7.9 4.1 1.7 65 2.5 W 11 15 6 8 - - 0.2
30/12:30am 7.6 3.8 1.9 67 2.3 WNW 11 17 6 9 - - 0.2
30/12:00am 7.3 4.5 1.8 68 2.2 WNW 6 11 3 6 - - 0.2
 
Date/Time
EST
Temp
°C
App
Temp
°C
Dew
Point
Rel
Hum
%
Delta-T
°C
Wind Press
QNH
hPa
Press
MSL
hPa
Rain
since 9 am
mm
Dir
 
Spd
km/h
Gust
km/h
Spd
kts
Gust
kts
29/11:30pm 7.7 4.7 2.2 68 2.3 WNW 7 9 4 5 - - 0.2
29/11:00pm 7.8 5.7 1.6 65 2.5 W 2 7 1 4 - - 0.2
29/10:30pm 9.3 5.9 1.9 60 3.1 W 9 11 5 6 - - 0.2
29/10:00pm 10.4 6.6 2.0 56 3.5 SW 11 17 6 9 - - 0.2
29/09:30pm 10.9 7.5 1.7 53 3.9 SSW 9 15 5 8 - - 0.2
29/09:00pm 11.1 6.9 1.9 53 3.9 WSW 13 17 7 9 - - 0.2
29/08:30pm 11.3 7.5 1.8 52 4.0 WSW 11 17 6 9 - - 0.2
29/08:00pm 12.4 8.9 1.4 47 4.7 WSW 9 20 5 11 - - 0.2
29/07:30pm 12.6 8.4 1.9 48 4.6 SW 13 22 7 12 - - 0.2
29/07:00pm 7.8 6.0 3.5 74 1.8 SSW 2 9 1 5 - - 0.2
29/06:30pm 8.2 6.3 2.9 69 2.2 SE 2 6 1 3 - - 0.2
29/06:00pm 9.4 7.9 2.9 64 2.8 CALM 0 0 0 0 - - 0.2
29/05:30pm 11.3 9.6 2.1 53 3.9 CALM 0 0 0 0 - - 0.2
29/05:00pm 14.4 11.7 0.3 38 6.0 SSW 4 7 2 4 - - 0.2
29/04:30pm 17.1 14.4 0.3 32 7.3 SSW 4 7 2 4 - - 0.2
29/04:00pm 18.1 14.4 -0.2 29 7.9 SW 9 13 5 7 - - 0.2
29/03:30pm 18.1 14.1 0.3 30 7.8 SW 11 15 6 8 - - 0.2
29/03:00pm 18.4 15.1 0.1 29 8.0 W 7 22 4 12 - - 0.2
29/02:30pm 18.4 14.5 1.4 32 7.6 WSW 11 17 6 9 - - 0.2
29/02:00pm 18.1 13.8 1.2 32 7.5 W 13 26 7 14 - - 0.2
29/01:30pm 18.0 13.8 1.9 34 7.3 W 13 22 7 12 - - 0.2
29/01:00pm 17.2 12.9 1.2 34 7.1 WSW 13 22 7 12 - - 0.2
29/12:30pm 16.8 12.2 1.7 36 6.7 W 15 24 8 13 - - 0.2
29/12:00pm 16.5 12.2 3.2 41 6.1 WSW 15 26 8 14 - - 0.2
29/11:30am 15.9 11.7 4.0 45 5.5 SW 15 22 8 12 - - 0.2
29/11:00am 14.9 10.3 3.7 47 5.1 WSW 17 26 9 14 - - 0.2
29/10:30am 14.1 9.6 4.1 51 4.6 W 17 28 9 15 - - 0.0
29/10:00am 13.2 9.0 3.8 53 4.2 WSW 15 26 8 14 - - 0.0

Other Formats:

Comma delimited format used in spreadsheet applications
http://www.bom.gov.au/fwo/IDN60801/IDN60801.94766.axf

JavaScript Object Notation format (JSON) in row-major order
http://www.bom.gov.au/fwo/IDN60801/IDN60801.94766.json